sensor_id;sensor_type;location;lat;lon;timestamp;pressure;altitude;pressure_sealevel;temperature;humidity
41044;BME280;51680;49.806;18.774;2024-03-25T00:00:47;95962.44;;;6.46;79.67
41044;BME280;51680;49.806;18.774;2024-03-25T00:03:48;95966.56;;;6.49;79.22
41044;BME280;51680;49.806;18.774;2024-03-25T00:06:50;95969.78;;;6.52;78.37
41044;BME280;51680;49.806;18.774;2024-03-25T00:09:51;95969.34;;;6.58;78.75
41044;BME280;51680;49.806;18.774;2024-03-25T00:12:56;95967.44;;;6.60;78.04
41044;BME280;51680;49.806;18.774;2024-03-25T00:15:57;95968.28;;;6.61;77.67
41044;BME280;51680;49.806;18.774;2024-03-25T00:18:59;95965.69;;;6.61;77.78
41044;BME280;51680;49.806;18.774;2024-03-25T00:22:00;95965.91;;;6.58;77.90
41044;BME280;51680;49.806;18.774;2024-03-25T00:25:01;95957.81;;;6.62;77.38
41044;BME280;51680;49.806;18.774;2024-03-25T00:28:04;95964.84;;;6.60;77.84
41044;BME280;51680;49.806;18.774;2024-03-25T00:31:05;95970.16;;;6.59;77.77
41044;BME280;51680;49.806;18.774;2024-03-25T00:34:28;95960.06;;;6.67;77.42
41044;BME280;51680;49.806;18.774;2024-03-25T00:37:29;95954.28;;;6.63;77.48
41044;BME280;51680;49.806;18.774;2024-03-25T00:40:30;95960.31;;;6.64;77.68
41044;BME280;51680;49.806;18.774;2024-03-25T00:43:33;95959.47;;;6.63;77.66
41044;BME280;51680;49.806;18.774;2024-03-25T00:46:35;95955.94;;;6.64;76.90
41044;BME280;51680;49.806;18.774;2024-03-25T00:49:37;95952.53;;;6.64;77.29
41044;BME280;51680;49.806;18.774;2024-03-25T00:52:38;95952.84;;;6.59;77.49
41044;BME280;51680;49.806;18.774;2024-03-25T00:55:39;95950.75;;;6.64;77.27
41044;BME280;51680;49.806;18.774;2024-03-25T00:58:42;95948.25;;;6.63;76.49
41044;BME280;51680;49.806;18.774;2024-03-25T01:01:42;95940.81;;;6.58;76.33
41044;BME280;51680;49.806;18.774;2024-03-25T01:04:44;95939.38;;;6.54;76.34
41044;BME280;51680;49.806;18.774;2024-03-25T01:07:45;95939.72;;;6.50;76.03
41044;BME280;51680;49.806;18.774;2024-03-25T01:10:46;95936.63;;;6.45;76.44
41044;BME280;51680;49.806;18.774;2024-03-25T01:13:49;95937.88;;;6.39;76.28
41044;BME280;51680;49.806;18.774;2024-03-25T01:16:50;95945.34;;;6.31;76.20
41044;BME280;51680;49.806;18.774;2024-03-25T01:19:52;95944.44;;;6.32;75.85
41044;BME280;51680;49.806;18.774;2024-03-25T01:22:52;95942.59;;;6.22;76.57
41044;BME280;51680;49.806;18.774;2024-03-25T01:25:55;95940.09;;;6.20;76.09
41044;BME280;51680;49.806;18.774;2024-03-25T01:28:57;95933.91;;;6.10;76.09
41044;BME280;51680;49.806;18.774;2024-03-25T01:31:58;95933.72;;;6.13;75.95
41044;BME280;51680;49.806;18.774;2024-03-25T01:34:59;95930.63;;;6.08;75.59
41044;BME280;51680;49.806;18.774;2024-03-25T01:38:01;95926.03;;;6.12;75.93
41044;BME280;51680;49.806;18.774;2024-03-25T01:41:08;95925.00;;;6.14;75.76
41044;BME280;51680;49.806;18.774;2024-03-25T01:44:11;95914.66;;;6.14;75.39
41044;BME280;51680;49.806;18.774;2024-03-25T01:47:12;95922.34;;;6.03;75.88
41044;BME280;51680;49.806;18.774;2024-03-25T01:50:13;95918.81;;;6.04;75.76
41044;BME280;51680;49.806;18.774;2024-03-25T01:53:15;95919.53;;;6.06;75.07
41044;BME280;51680;49.806;18.774;2024-03-25T01:56:16;95920.13;;;6.10;75.01
41044;BME280;51680;49.806;18.774;2024-03-25T01:59:19;95926.25;;;6.09;74.55
41044;BME280;51680;49.806;18.774;2024-03-25T02:02:21;95919.22;;;6.11;74.63
41044;BME280;51680;49.806;18.774;2024-03-25T02:05:21;95924.50;;;6.09;74.35
41044;BME280;51680;49.806;18.774;2024-03-25T02:08:23;95913.34;;;5.96;74.54
41044;BME280;51680;49.806;18.774;2024-03-25T02:11:25;95908.34;;;5.93;74.92
41044;BME280;51680;49.806;18.774;2024-03-25T02:14:28;95907.66;;;5.91;74.74
41044;BME280;51680;49.806;18.774;2024-03-25T02:17:30;95906.94;;;5.89;74.55
41044;BME280;51680;49.806;18.774;2024-03-25T02:20:31;95902.91;;;5.85;75.17
41044;BME280;51680;49.806;18.774;2024-03-25T02:23:33;95907.84;;;5.88;75.18
41044;BME280;51680;49.806;18.774;2024-03-25T02:26:36;95912.38;;;5.97;74.46
41044;BME280;51680;49.806;18.774;2024-03-25T02:29:37;95917.38;;;6.00;74.82
41044;BME280;51680;49.806;18.774;2024-03-25T02:32:38;95920.91;;;5.99;74.60
41044;BME280;51680;49.806;18.774;2024-03-25T02:35:40;95928.34;;;6.04;74.45
41044;BME280;51680;49.806;18.774;2024-03-25T02:38:41;95931.03;;;6.02;75.31
41044;BME280;51680;49.806;18.774;2024-03-25T02:41:44;95932.72;;;6.03;74.99
41044;BME280;51680;49.806;18.774;2024-03-25T02:44:46;95923.16;;;6.04;75.72
41044;BME280;51680;49.806;18.774;2024-03-25T02:47:47;95933.00;;;5.99;76.11
41044;BME280;51680;49.806;18.774;2024-03-25T02:50:49;95929.97;;;6.05;76.29
41044;BME280;51680;49.806;18.774;2024-03-25T02:53:50;95946.78;;;5.99;77.95
41044;BME280;51680;49.806;18.774;2024-03-25T02:56:52;95943.47;;;5.97;79.46
41044;BME280;51680;49.806;18.774;2024-03-25T02:59:53;95941.19;;;6.05;79.49
41044;BME280;51680;49.806;18.774;2024-03-25T03:02:55;95941.19;;;6.05;80.49
41044;BME280;51680;49.806;18.774;2024-03-25T03:05:55;95950.84;;;6.03;81.73
41044;BME280;51680;49.806;18.774;2024-03-25T03:08:57;95938.69;;;6.04;82.07
41044;BME280;51680;49.806;18.774;2024-03-25T03:11:59;95941.09;;;5.94;83.28
41044;BME280;51680;49.806;18.774;2024-03-25T03:15:00;95946.56;;;5.77;84.94
41044;BME280;51680;49.806;18.774;2024-03-25T03:18:01;95950.28;;;5.73;85.14
41044;BME280;51680;49.806;18.774;2024-03-25T03:21:03;95954.44;;;5.76;85.81
41044;BME280;51680;49.806;18.774;2024-03-25T03:24:04;95954.66;;;5.73;86.20
41044;BME280;51680;49.806;18.774;2024-03-25T03:27:07;95948.06;;;5.81;85.67
41044;BME280;51680;49.806;18.774;2024-03-25T03:30:08;95948.75;;;5.83;85.78
41044;BME280;51680;49.806;18.774;2024-03-25T03:33:09;95945.47;;;5.81;85.48
41044;BME280;51680;49.806;18.774;2024-03-25T03:36:10;95938.78;;;5.77;85.46
41044;BME280;51680;49.806;18.774;2024-03-25T03:39:11;95940.53;;;5.77;86.72
41044;BME280;51680;49.806;18.774;2024-03-25T03:42:15;95944.06;;;5.76;86.50
41044;BME280;51680;49.806;18.774;2024-03-25T03:45:16;95940.97;;;5.71;87.04
41044;BME280;51680;49.806;18.774;2024-03-25T03:48:17;95943.88;;;5.66;87.45
41044;BME280;51680;49.806;18.774;2024-03-25T03:51:19;95942.25;;;5.65;88.17
41044;BME280;51680;49.806;18.774;2024-03-25T03:54:19;95936.84;;;5.68;87.44
41044;BME280;51680;49.806;18.774;2024-03-25T03:57:22;95940.16;;;5.70;87.78
41044;BME280;51680;49.806;18.774;2024-03-25T04:00:23;95939.13;;;5.73;87.90
41044;BME280;51680;49.806;18.774;2024-03-25T04:03:24;95942.44;;;5.87;88.07
41044;BME280;51680;49.806;18.774;2024-03-25T04:06:26;95948.88;;;5.94;87.42
41044;BME280;51680;49.806;18.774;2024-03-25T04:09:27;95946.91;;;5.85;87.40
41044;BME280;51680;49.806;18.774;2024-03-25T04:12:30;95942.44;;;5.87;88.15
41044;BME280;51680;49.806;18.774;2024-03-25T04:15:32;95944.09;;;5.88;87.88
41044;BME280;51680;49.806;18.774;2024-03-25T04:18:52;95938.72;;;5.91;87.43
41044;BME280;51680;49.806;18.774;2024-03-25T04:21:54;95946.47;;;5.91;86.63
41044;BME280;51680;49.806;18.774;2024-03-25T04:24:56;95940.16;;;5.70;87.64
41044;BME280;51680;49.806;18.774;2024-03-25T04:27:58;95939.84;;;5.75;87.45
41044;BME280;51680;49.806;18.774;2024-03-25T04:31:00;95949.25;;;5.63;87.97
41044;BME280;51680;49.806;18.774;2024-03-25T04:34:00;95950.19;;;5.62;88.50
41044;BME280;51680;49.806;18.774;2024-03-25T04:37:02;95951.75;;;5.65;89.07
41044;BME280;51680;49.806;18.774;2024-03-25T04:40:03;95957.34;;;5.71;88.02
41044;BME280;51680;49.806;18.774;2024-03-25T04:43:05;95947.19;;;5.68;88.18
41044;BME280;51680;49.806;18.774;2024-03-25T04:46:06;95948.44;;;5.63;88.33
41044;BME280;51680;49.806;18.774;2024-03-25T04:49:07;95954.34;;;5.52;88.67
41044;BME280;51680;49.806;18.774;2024-03-25T04:52:07;95950.09;;;5.51;89.17
41044;BME280;51680;49.806;18.774;2024-03-25T04:55:08;95952.19;;;5.59;89.86
41044;BME280;51680;49.806;18.774;2024-03-25T04:58:10;95950.09;;;5.51;89.13
41044;BME280;51680;49.806;18.774;2024-03-25T05:01:11;95952.38;;;5.56;89.69
41044;BME280;51680;49.806;18.774;2024-03-25T05:04:12;95953.72;;;5.61;88.77
41044;BME280;51680;49.806;18.774;2024-03-25T05:07:12;95949.06;;;5.66;89.04
41044;BME280;51680;49.806;18.774;2024-03-25T05:10:13;95948.75;;;5.71;88.77
41044;BME280;51680;49.806;18.774;2024-03-25T05:13:15;95950.91;;;5.64;88.79
41044;BME280;51680;49.806;18.774;2024-03-25T05:16:16;95959.09;;;5.71;89.09
41044;BME280;51680;49.806;18.774;2024-03-25T05:19:16;95959.00;;;5.72;89.33
41044;BME280;51680;49.806;18.774;2024-03-25T05:22:17;95966.66;;;5.74;89.11
41044;BME280;51680;49.806;18.774;2024-03-25T05:25:18;95972.03;;;5.71;90.04
41044;BME280;51680;49.806;18.774;2024-03-25T05:28:20;95972.44;;;5.77;89.38
41044;BME280;51680;49.806;18.774;2024-03-25T05:31:21;95970.41;;;5.82;89.21
41044;BME280;51680;49.806;18.774;2024-03-25T05:34:21;95977.88;;;5.87;89.35
41044;BME280;51680;49.806;18.774;2024-03-25T05:37:22;95975.69;;;5.93;89.10
41044;BME280;51680;49.806;18.774;2024-03-25T05:40:23;95972.88;;;5.96;89.05
41044;BME280;51680;49.806;18.774;2024-03-25T05:43:25;95984.50;;;6.03;89.20
41044;BME280;51680;49.806;18.774;2024-03-25T05:46:25;95987.59;;;6.08;88.39
41044;BME280;51680;49.806;18.774;2024-03-25T05:49:26;95974.66;;;6.08;88.56
41044;BME280;51680;49.806;18.774;2024-03-25T05:52:28;95991.84;;;6.09;89.77
41044;BME280;51680;49.806;18.774;2024-03-25T05:55:28;95990.06;;;6.10;89.57
41044;BME280;51680;49.806;18.774;2024-03-25T05:58:30;95998.56;;;6.12;89.23
41044;BME280;51680;49.806;18.774;2024-03-25T06:01:31;96003.72;;;6.24;89.48
41044;BME280;51680;49.806;18.774;2024-03-25T06:04:33;95999.50;;;6.23;89.50
41044;BME280;51680;49.806;18.774;2024-03-25T06:07:35;96006.63;;;6.32;89.30
41044;BME280;51680;49.806;18.774;2024-03-25T06:10:36;96003.06;;;6.46;88.88
41044;BME280;51680;49.806;18.774;2024-03-25T06:13:38;96001.78;;;6.64;88.50
41044;BME280;51680;49.806;18.774;2024-03-25T06:16:39;96004.13;;;6.67;87.50
41044;BME280;51680;49.806;18.774;2024-03-25T06:19:39;95998.84;;;6.68;87.40
41044;BME280;51680;49.806;18.774;2024-03-25T06:22:40;96005.22;;;6.88;88.25
41044;BME280;51680;49.806;18.774;2024-03-25T06:25:41;95998.94;;;7.03;87.93
41044;BME280;51680;49.806;18.774;2024-03-25T06:28:43;96001.56;;;7.14;86.14
41044;BME280;51680;49.806;18.774;2024-03-25T06:31:43;96006.69;;;7.26;86.65
41044;BME280;51680;49.806;18.774;2024-03-25T06:35:03;95999.47;;;7.19;84.47
41044;BME280;51680;49.806;18.774;2024-03-25T06:38:04;96013.16;;;7.21;84.92
41044;BME280;51680;49.806;18.774;2024-03-25T06:41:05;96009.63;;;7.22;84.93
41044;BME280;51680;49.806;18.774;2024-03-25T06:44:07;96008.88;;;7.20;84.93
41044;BME280;51680;49.806;18.774;2024-03-25T06:47:07;96013.75;;;7.24;85.36
41044;BME280;51680;49.806;18.774;2024-03-25T06:50:08;96012.22;;;7.22;83.92
41044;BME280;51680;49.806;18.774;2024-03-25T06:53:09;96013.97;;;7.21;84.01
41044;BME280;51680;49.806;18.774;2024-03-25T06:56:10;96017.31;;;7.23;83.89
41044;BME280;51680;49.806;18.774;2024-03-25T06:59:12;96022.84;;;7.30;83.69
41044;BME280;51680;49.806;18.774;2024-03-25T07:02:12;96021.59;;;7.35;83.82
41044;BME280;51680;49.806;18.774;2024-03-25T07:05:13;96021.13;;;7.41;82.36
41044;BME280;51680;49.806;18.774;2024-03-25T07:08:14;96025.44;;;7.53;83.11
41044;BME280;51680;49.806;18.774;2024-03-25T07:11:15;96031.50;;;7.65;82.93
41044;BME280;51680;49.806;18.774;2024-03-25T07:14:17;96023.03;;;7.74;82.27
41044;BME280;51680;49.806;18.774;2024-03-25T07:17:18;96028.72;;;7.55;82.75
41044;BME280;51680;49.806;18.774;2024-03-25T07:20:18;96031.28;;;7.44;83.02
41044;BME280;51680;49.806;18.774;2024-03-25T07:23:19;96030.69;;;7.41;83.11
41044;BME280;51680;49.806;18.774;2024-03-25T07:26:20;96037.44;;;7.43;83.69
41044;BME280;51680;49.806;18.774;2024-03-25T07:29:22;96027.16;;;7.42;82.78
41044;BME280;51680;49.806;18.774;2024-03-25T07:32:23;96041.22;;;7.50;83.62
41044;BME280;51680;49.806;18.774;2024-03-25T07:35:24;96046.59;;;7.60;83.09
41044;BME280;51680;49.806;18.774;2024-03-25T07:38:25;96045.53;;;7.62;83.54
41044;BME280;51680;49.806;18.774;2024-03-25T07:41:25;96048.56;;;7.56;83.00
41044;BME280;51680;49.806;18.774;2024-03-25T07:44:27;96043.13;;;7.48;82.61
41044;BME280;51680;49.806;18.774;2024-03-25T07:47:28;96058.19;;;7.43;82.89
41044;BME280;51680;49.806;18.774;2024-03-25T07:50:29;96052.44;;;7.51;83.09
41044;BME280;51680;49.806;18.774;2024-03-25T07:53:29;96052.94;;;7.56;83.29
41044;BME280;51680;49.806;18.774;2024-03-25T07:56:30;96060.38;;;7.60;83.79
41044;BME280;51680;49.806;18.774;2024-03-25T07:59:32;96064.41;;;7.64;83.09
41044;BME280;51680;49.806;18.774;2024-03-25T08:02:33;96060.38;;;7.60;83.25
41044;BME280;51680;49.806;18.774;2024-03-25T08:05:33;96063.69;;;7.62;83.67
41044;BME280;51680;49.806;18.774;2024-03-25T08:08:34;96071.91;;;7.56;83.88
41044;BME280;51680;49.806;18.774;2024-03-25T08:11:35;96075.63;;;7.65;83.77
41044;BME280;51680;49.806;18.774;2024-03-25T08:14:37;96084.53;;;7.84;84.62
41044;BME280;51680;49.806;18.774;2024-03-25T08:17:38;96075.25;;;7.93;84.49
41044;BME280;51680;49.806;18.774;2024-03-25T08:20:38;96074.31;;;8.05;84.89
41044;BME280;51680;49.806;18.774;2024-03-25T08:23:39;96084.72;;;8.16;83.51
41044;BME280;51680;49.806;18.774;2024-03-25T08:26:40;96084.09;;;8.36;82.64
41044;BME280;51680;49.806;18.774;2024-03-25T08:29:42;96089.66;;;8.75;82.93
41044;BME280;51680;49.806;18.774;2024-03-25T08:32:43;96096.00;;;9.04;81.79
41044;BME280;51680;49.806;18.774;2024-03-25T08:35:43;96097.91;;;9.24;80.37
41044;BME280;51680;49.806;18.774;2024-03-25T08:38:44;96092.44;;;9.16;78.46
41044;BME280;51680;49.806;18.774;2024-03-25T08:41:45;96092.22;;;9.08;76.79
41044;BME280;51680;49.806;18.774;2024-03-25T08:44:47;96094.25;;;9.05;79.31
41044;BME280;51680;49.806;18.774;2024-03-25T08:47:48;96086.53;;;9.25;78.40
41044;BME280;51680;49.806;18.774;2024-03-25T08:50:48;96092.31;;;9.60;76.77
41044;BME280;51680;49.806;18.774;2024-03-25T08:53:49;96096.56;;;9.72;74.92
41044;BME280;51680;49.806;18.774;2024-03-25T08:56:50;96092.72;;;9.76;73.42
41044;BME280;51680;49.806;18.774;2024-03-25T08:59:52;96100.53;;;9.76;73.58
41044;BME280;51680;49.806;18.774;2024-03-25T09:02:52;96096.72;;;9.91;73.78
41044;BME280;51680;49.806;18.774;2024-03-25T09:05:53;96101.81;;;10.13;72.42
41044;BME280;51680;49.806;18.774;2024-03-25T09:08:54;96099.19;;;10.24;72.88
41044;BME280;51680;49.806;18.774;2024-03-25T09:12:13;96085.66;;;10.19;70.96
41044;BME280;51680;49.806;18.774;2024-03-25T09:15:15;96093.16;;;10.33;72.07
41044;BME280;51680;49.806;18.774;2024-03-25T09:18:16;96093.13;;;10.24;70.95
41044;BME280;51680;49.806;18.774;2024-03-25T09:21:17;96098.00;;;10.88;70.83
41044;BME280;51680;49.806;18.774;2024-03-25T09:24:18;96093.09;;;11.72;69.36
41044;BME280;51680;49.806;18.774;2024-03-25T09:27:18;96082.03;;;13.00;65.32
41044;BME280;51680;49.806;18.774;2024-03-25T09:30:20;96085.94;;;12.77;61.59
41044;BME280;51680;49.806;18.774;2024-03-25T09:33:21;96091.19;;;12.12;62.10
41044;BME280;51680;49.806;18.774;2024-03-25T09:36:22;96082.88;;;11.41;63.21
41044;BME280;51680;49.806;18.774;2024-03-25T09:39:23;96090.53;;;11.23;64.81
41044;BME280;51680;49.806;18.774;2024-03-25T09:42:25;96082.59;;;11.44;64.00
41044;BME280;51680;49.806;18.774;2024-03-25T09:45:27;96079.56;;;12.43;63.44
41044;BME280;51680;49.806;18.774;2024-03-25T09:48:29;96083.19;;;13.15;63.54
41044;BME280;51680;49.806;18.774;2024-03-25T09:51:30;96090.31;;;13.67;60.50
41044;BME280;51680;49.806;18.774;2024-03-25T09:54:31;96095.13;;;14.07;61.27
41044;BME280;51680;49.806;18.774;2024-03-25T09:57:32;96098.88;;;13.69;57.33
41044;BME280;51680;49.806;18.774;2024-03-25T10:00:34;96127.63;;;13.34;59.16
41044;BME280;51680;49.806;18.774;2024-03-25T10:03:34;96135.72;;;12.68;57.14
41044;BME280;51680;49.806;18.774;2024-03-25T10:06:35;96151.63;;;11.90;59.15
41044;BME280;51680;49.806;18.774;2024-03-25T10:09:36;96143.06;;;11.20;60.20
41044;BME280;51680;49.806;18.774;2024-03-25T10:12:36;96146.41;;;10.72;61.75
41044;BME280;51680;49.806;18.774;2024-03-25T10:15:38;96148.66;;;10.35;61.17
41044;BME280;51680;49.806;18.774;2024-03-25T10:18:39;96152.84;;;10.06;62.78
41044;BME280;51680;49.806;18.774;2024-03-25T10:21:40;96179.00;;;9.62;63.56
41044;BME280;51680;49.806;18.774;2024-03-25T10:27:05;96183.44;;;8.96;68.01
41044;BME280;51680;49.806;18.774;2024-03-25T10:30:07;96177.13;;;8.65;69.08
41044;BME280;51680;49.806;18.774;2024-03-25T10:33:08;96175.41;;;8.31;70.28
41044;BME280;51680;49.806;18.774;2024-03-25T10:36:09;96168.09;;;8.25;70.59
41044;BME280;51680;49.806;18.774;2024-03-25T10:39:11;96168.78;;;8.27;71.36
41044;BME280;51680;49.806;18.774;2024-03-25T10:42:19;96165.53;;;8.13;71.83
41044;BME280;51680;49.806;18.774;2024-03-25T10:45:20;96167.78;;;8.17;72.18
41044;BME280;51680;49.806;18.774;2024-03-25T10:48:26;96168.25;;;8.11;72.97
41044;BME280;51680;49.806;18.774;2024-03-25T10:51:28;96168.25;;;8.11;72.64
41044;BME280;51680;49.806;18.774;2024-03-25T10:54:49;96165.44;;;8.14;73.11
41044;BME280;51680;49.806;18.774;2024-03-25T10:57:52;96163.88;;;8.12;73.70
41044;BME280;51680;49.806;18.774;2024-03-25T11:00:55;96167.66;;;8.08;75.18
41044;BME280;51680;49.806;18.774;2024-03-25T11:03:56;96168.47;;;8.43;74.58
41044;BME280;51680;49.806;18.774;2024-03-25T11:07:07;96157.97;;;8.33;75.70
41044;BME280;51680;49.806;18.774;2024-03-25T11:10:09;96160.63;;;8.21;76.86
41044;BME280;51680;49.806;18.774;2024-03-25T11:13:12;96160.56;;;8.10;77.48
41044;BME280;51680;49.806;18.774;2024-03-25T11:16:13;96160.09;;;7.81;78.72
41044;BME280;51680;49.806;18.774;2024-03-25T11:19:17;96163.66;;;7.80;78.21
41044;BME280;51680;49.806;18.774;2024-03-25T11:22:24;96159.53;;;7.65;78.89
41044;BME280;51680;49.806;18.774;2024-03-25T11:25:25;96159.59;;;7.53;79.60
41044;BME280;51680;49.806;18.774;2024-03-25T11:28:32;96151.50;;;7.57;79.15
41044;BME280;51680;49.806;18.774;2024-03-25T11:31:38;96147.09;;;7.58;79.63
41044;BME280;51680;49.806;18.774;2024-03-25T11:34:49;96151.75;;;7.89;79.21
41044;BME280;51680;49.806;18.774;2024-03-25T11:37:50;96166.13;;;8.16;77.18
41044;BME280;51680;49.806;18.774;2024-03-25T11:40:52;96168.84;;;8.15;77.31
41044;BME280;51680;49.806;18.774;2024-03-25T11:43:56;96175.19;;;8.11;80.93
41044;BME280;51680;49.806;18.774;2024-03-25T11:46:57;96176.38;;;8.07;77.70
41044;BME280;51680;49.806;18.774;2024-03-25T11:49:58;96192.06;;;8.29;77.48
41044;BME280;51680;49.806;18.774;2024-03-25T11:52:59;96196.22;;;8.31;76.76
41044;BME280;51680;49.806;18.774;2024-03-25T11:56:00;96197.72;;;8.23;76.32
41044;BME280;51680;49.806;18.774;2024-03-25T11:59:02;96189.00;;;8.24;76.10
41044;BME280;51680;49.806;18.774;2024-03-25T12:02:06;96185.34;;;8.26;76.61
41044;BME280;51680;49.806;18.774;2024-03-25T12:05:07;96187.59;;;8.31;77.18
41044;BME280;51680;49.806;18.774;2024-03-25T12:08:08;96184.16;;;8.30;77.24
41044;BME280;51680;49.806;18.774;2024-03-25T12:11:09;96174.88;;;8.15;77.84
41044;BME280;51680;49.806;18.774;2024-03-25T12:14:21;96169.66;;;8.04;78.43
41044;BME280;51680;49.806;18.774;2024-03-25T12:17:22;96167.47;;;7.98;77.47
41044;BME280;51680;49.806;18.774;2024-03-25T12:20:23;96164.47;;;8.15;76.96
41044;BME280;51680;49.806;18.774;2024-03-25T12:23:29;96167.78;;;8.41;77.35
41044;BME280;51680;49.806;18.774;2024-03-25T12:26:30;96169.22;;;8.67;76.86
41044;BME280;51680;49.806;18.774;2024-03-25T12:29:32;96171.47;;;9.04;77.13
41044;BME280;51680;49.806;18.774;2024-03-25T12:32:37;96166.03;;;9.40;76.04
41044;BME280;51680;49.806;18.774;2024-03-25T12:35:38;96177.34;;;9.72;74.82
41044;BME280;51680;49.806;18.774;2024-03-25T12:38:39;96173.56;;;9.97;73.23
41044;BME280;51680;49.806;18.774;2024-03-25T12:41:40;96169.16;;;10.08;72.25
41044;BME280;51680;49.806;18.774;2024-03-25T12:44:42;96165.91;;;10.27;71.48
41044;BME280;51680;49.806;18.774;2024-03-25T12:47:43;96163.28;;;10.27;70.71
41044;BME280;51680;49.806;18.774;2024-03-25T12:50:44;96165.75;;;10.28;71.02
41044;BME280;51680;49.806;18.774;2024-03-25T12:53:45;96171.06;;;10.38;71.61
41044;BME280;51680;49.806;18.774;2024-03-25T12:56:46;96161.94;;;10.53;71.43
41044;BME280;51680;49.806;18.774;2024-03-25T12:59:48;96168.59;;;10.66;70.92
41044;BME280;51680;49.806;18.774;2024-03-25T13:02:49;96172.84;;;10.88;71.40
41044;BME280;51680;49.806;18.774;2024-03-25T13:05:50;96169.25;;;11.09;70.36
41044;BME280;51680;49.806;18.774;2024-03-25T13:08:51;96168.22;;;11.21;69.71
41044;BME280;51680;49.806;18.774;2024-03-25T13:11:52;96166.84;;;11.27;68.36
41044;BME280;51680;49.806;18.774;2024-03-25T13:14:54;96162.28;;;11.19;68.61
41044;BME280;51680;49.806;18.774;2024-03-25T13:17:55;96167.59;;;11.08;68.80
41044;BME280;51680;49.806;18.774;2024-03-25T13:20:56;96160.63;;;10.88;68.21
41044;BME280;51680;49.806;18.774;2024-03-25T13:23:56;96163.28;;;10.98;69.29
41044;BME280;51680;49.806;18.774;2024-03-25T13:26:57;96160.31;;;11.12;68.66
41044;BME280;51680;49.806;18.774;2024-03-25T13:29:59;96160.69;;;11.28;68.04
41044;BME280;51680;49.806;18.774;2024-03-25T13:33:00;96147.63;;;11.37;67.46
41044;BME280;51680;49.806;18.774;2024-03-25T13:36:01;96154.53;;;11.48;66.34
41044;BME280;51680;49.806;18.774;2024-03-25T13:39:02;96158.38;;;11.53;66.06
41044;BME280;51680;49.806;18.774;2024-03-25T13:42:03;96151.59;;;11.62;65.53
41044;BME280;51680;49.806;18.774;2024-03-25T13:45:06;96156.41;;;11.66;65.43
41044;BME280;51680;49.806;18.774;2024-03-25T13:48:07;96159.47;;;11.81;64.94
41044;BME280;51680;49.806;18.774;2024-03-25T13:51:08;96161.81;;;11.93;64.54
41044;BME280;51680;49.806;18.774;2024-03-25T13:54:09;96153.16;;;12.02;64.37
41044;BME280;51680;49.806;18.774;2024-03-25T13:57:10;96159.47;;;12.00;63.39
41044;BME280;51680;49.806;18.774;2024-03-25T14:00:14;96157.81;;;12.08;63.76
41044;BME280;51680;49.806;18.774;2024-03-25T14:03:15;96154.94;;;12.11;63.65
41044;BME280;51680;49.806;18.774;2024-03-25T14:06:16;96157.56;;;12.11;63.49
41044;BME280;51680;49.806;18.774;2024-03-25T14:09:23;96153.56;;;12.07;62.53
41044;BME280;51680;49.806;18.774;2024-03-25T14:12:25;96164.03;;;12.07;64.03
41044;BME280;51680;49.806;18.774;2024-03-25T14:15:27;96165.00;;;12.06;62.83
41044;BME280;51680;49.806;18.774;2024-03-25T14:18:28;96172.00;;;12.06;63.23
41044;BME280;51680;49.806;18.774;2024-03-25T14:21:29;96172.69;;;11.98;62.80
41044;BME280;51680;49.806;18.774;2024-03-25T14:24:30;96172.53;;;11.90;62.28
41044;BME280;51680;49.806;18.774;2024-03-25T14:27:31;96181.72;;;11.75;61.28
41044;BME280;51680;49.806;18.774;2024-03-25T14:30:33;96186.25;;;11.64;60.44
41044;BME280;51680;49.806;18.774;2024-03-25T14:33:34;96189.28;;;11.59;60.03
41044;BME280;51680;49.806;18.774;2024-03-25T14:36:35;96198.56;;;11.52;61.42
41044;BME280;51680;49.806;18.774;2024-03-25T14:39:36;96213.28;;;11.53;63.00
41044;BME280;51680;49.806;18.774;2024-03-25T14:42:37;96204.13;;;11.38;63.67
41044;BME280;51680;49.806;18.774;2024-03-25T14:45:39;96228.09;;;11.43;64.72
41044;BME280;51680;49.806;18.774;2024-03-25T14:48:40;96228.63;;;11.37;64.85
41044;BME280;51680;49.806;18.774;2024-03-25T14:51:41;96232.66;;;11.21;65.08
41044;BME280;51680;49.806;18.774;2024-03-25T14:54:42;96246.03;;;10.97;65.69
41044;BME280;51680;49.806;18.774;2024-03-25T14:57:43;96245.50;;;10.62;65.49
41044;BME280;51680;49.806;18.774;2024-03-25T15:00:45;96247.44;;;10.29;66.57
41044;BME280;51680;49.806;18.774;2024-03-25T15:03:46;96254.13;;;10.11;67.44
41044;BME280;51680;49.806;18.774;2024-03-25T15:06:47;96256.84;;;9.98;67.61
41044;BME280;51680;49.806;18.774;2024-03-25T15:09:48;96259.13;;;9.92;68.44
41044;BME280;51680;49.806;18.774;2024-03-25T15:12:49;96267.50;;;9.95;69.52
41044;BME280;51680;49.806;18.774;2024-03-25T15:15:51;96269.44;;;10.04;69.62
41044;BME280;51680;49.806;18.774;2024-03-25T15:18:53;96277.25;;;10.15;70.04
41044;BME280;51680;49.806;18.774;2024-03-25T15:21:54;96275.75;;;10.33;69.96
41044;BME280;51680;49.806;18.774;2024-03-25T15:24:55;96283.72;;;10.52;69.77
41044;BME280;51680;49.806;18.774;2024-03-25T15:27:56;96274.53;;;10.48;69.97
41044;BME280;51680;49.806;18.774;2024-03-25T15:30:58;96269.09;;;10.40;69.88
41044;BME280;51680;49.806;18.774;2024-03-25T15:34:00;96277.59;;;10.42;69.43
41044;BME280;51680;49.806;18.774;2024-03-25T15:37:01;96285.69;;;10.39;69.79
41044;BME280;51680;49.806;18.774;2024-03-25T15:40:02;96285.25;;;10.23;70.71
41044;BME280;51680;49.806;18.774;2024-03-25T15:43:03;96280.31;;;10.20;70.62
41044;BME280;51680;49.806;18.774;2024-03-25T15:46:05;96275.56;;;10.14;70.89
41044;BME280;51680;49.806;18.774;2024-03-25T15:49:06;96265.91;;;10.05;71.72
41044;BME280;51680;49.806;18.774;2024-03-25T15:52:07;96277.47;;;10.12;71.71
41044;BME280;51680;49.806;18.774;2024-03-25T15:55:08;96270.00;;;10.19;71.39
41044;BME280;51680;49.806;18.774;2024-03-25T15:58:10;96277.44;;;10.23;71.97
41044;BME280;51680;49.806;18.774;2024-03-25T16:01:12;96284.09;;;10.16;72.27